Julian Carroll Airport Jackson US
ICAO: KJKL
IATA: JKL
Category: Medium
Scheduled Services: No

Elevation: 1381 ft
TransAlt. 18000 ft.

Airport Communications:
ASOS:118.375
INDIANAPOLIS CNTR:126.57
CTAF/UNICOM:122.8

KJKL Zoom In..

Runways:

(A) RW 01 length 4400 ft width 75 ft
---- / hdg 12

(B) RW 19 length 4400 ft width 75 ft
---- / hdg 192

Location; KJKL
Day. 19 / Time. 03.53 Zulu
* Altimeter: 30.05
* Temperature: 20° c. 68°f.
* Wind from: 000° Speed 00 kn.
Dewpoint: 14° c.
Visibility: 10 Statute Miles.
Clouds: Clear (automated report).

KJKL 190353Z AUTO 00000KT 10SM CLR 20/14 A3005 RMK AO2 SLP162 T02000139


Wind - Calm.

 
 
jpsmedia.com for Web Design worldairports.se 2018   terms of use